»·PEaware :: N493NT L52-L88

N493NT :: L52-L88

FLIGHT INFORMATION

Flight Status: Arrived
Operator: Privately registered:
United States
More flights under this callsign
Pilot: Diana T. (22608)
Aircraft: CESSNA T210 TURBO CENTURION
(T210)
More flights by this aircraft type
Origin: L52 Oceano Co
United States
Destination: L88 New Cuyama
United States
More flights between these airports :: More routes between these airports
Route:
File this flight plan on PilotEdge
Remarks:
Altitude:
(Current/Filed)
3,500ft
Speed:
(Current/Filed)
150kts
Departed: 26-Dec-18 10:27 AM
Arrived: 26-Dec-18 10:53 AM
Distance/Time
Traveled:
47nm/0:26
Distance/Time
To Go:
Arrived

Flight Plot

Page will automatically refresh every two minutes.


Map Options




Map Legend


Flown Route
Filed Route
Departure Airport
Arrival Airport
Navaid (VOR, NDB)
Fix

Horizontal Profiles

Position Reports

Time Latitude Longitude Heading Altitude Ground
Speed
26-Dec-18 10:15 35.103383 -120.624687 212 18ft 0kts
26-Dec-18 10:16 35.103383 -120.624687 212 18ft 0kts
26-Dec-18 10:17 35.103383 -120.624687 212 18ft 0kts
26-Dec-18 10:18 35.103383 -120.624687 212 18ft 0kts
26-Dec-18 10:19 35.103383 -120.624687 212 18ft 0kts
26-Dec-18 10:20 35.102205 -120.622639 127 18ft 15kts
26-Dec-18 10:21 35.100999 -120.622297 128 18ft 10kts
26-Dec-18 10:22 35.099555 -120.619494 51 18ft 0kts
26-Dec-18 10:23 35.099555 -120.619494 51 18ft 0kts
26-Dec-18 10:24 35.099555 -120.619494 51 18ft 0kts
26-Dec-18 10:25 35.099623 -120.619407 46 18ft 5kts
26-Dec-18 10:26 35.110059 -120.637355 307 908ft 89kts
26-Dec-18 10:27 35.095226 -120.634614 108 2053ft 123kts
26-Dec-18 10:28 35.081472 -120.592584 104 2959ft 142kts
26-Dec-18 10:29 35.066366 -120.544532 101 3517ft 162kts
26-Dec-18 10:30 35.047526 -120.494651 122 3442ft 164kts
26-Dec-18 10:31 35.015346 -120.456541 131 3419ft 165kts
26-Dec-18 10:32 34.990772 -120.412755 103 3507ft 152kts
26-Dec-18 10:33 34.977147 -120.363690 102 3482ft 159kts
26-Dec-18 10:34 34.955994 -120.316781 115 3487ft 157kts
26-Dec-18 10:35 34.959586 -120.271210 56 3502ft 140kts
26-Dec-18 10:36 34.982305 -120.232325 43 3433ft 152kts
26-Dec-18 10:37 35.009449 -120.197419 63 3547ft 145kts
26-Dec-18 10:38 35.008124 -120.145755 104 3487ft 164kts
26-Dec-18 10:39 34.991946 -120.094794 105 3520ft 163kts
26-Dec-18 10:40 34.994174 -120.045113 66 4234ft 136kts
26-Dec-18 10:41 35.018627 -120.018546 24 5092ft 137kts
26-Dec-18 10:42 35.026405 -119.971562 102 4990ft 159kts
26-Dec-18 10:43 35.011600 -119.923510 100 4380ft 147kts
26-Dec-18 10:44 34.998342 -119.878424 109 3872ft 135kts
26-Dec-18 10:45 34.983896 -119.836625 110 3481ft 129kts
26-Dec-18 10:46 34.972234 -119.793242 105 3664ft 142kts
26-Dec-18 10:47 34.958622 -119.748362 117 3603ft 143kts
26-Dec-18 10:48 34.942159 -119.707663 119 3180ft 117kts
26-Dec-18 10:49 34.927378 -119.681211 129 3174ft 95kts
26-Dec-18 10:50 34.928649 -119.664548 331 2809ft 80kts
26-Dec-18 10:51 34.939394 -119.684292 295 2178ft 47kts
26-Dec-18 10:52 34.942382 -119.690933 343 2152ft 0kts
26-Dec-18 10:53 34.942728 -119.691161 24 2151ft 6kts
26-Dec-18 10:54 34.942701 -119.690750 113 2153ft 0kts
26-Dec-18 10:55 34.942701 -119.690750 113 2153ft 0kts
26-Dec-18 10:56 34.942701 -119.690750 113 2153ft 0kts
26-Dec-18 10:57 34.942701 -119.690750 113 2153ft 0kts
26-Dec-18 10:58 34.942701 -119.690750 113 2153ft 0kts
26-Dec-18 10:59 34.942701 -119.690750 113 2153ft 0kts
26-Dec-18 11:00 34.942701 -119.690750 113 2153ft 0kts
26-Dec-18 11:01 34.942701 -119.690750 113 2153ft 0kts
26-Dec-18 11:02 34.942701 -119.690750 113 2153ft 0kts
26-Dec-18 11:03 34.942701 -119.690750 113 2153ft 0kts
26-Dec-18 11:04 34.942701 -119.690750 113 2153ft 0kts
26-Dec-18 11:05 34.942701 -119.690750 113 2153ft 0kts
26-Dec-18 11:06 34.942701 -119.690750 113 2153ft 0kts

Navigation Log

Ident Type
Flight plan parsing failed, navigation log unavailable